createdAt,value
2023-05-18T00:00:16.479Z,7.92
2023-05-18T00:02:43.307Z,7.92
2023-05-18T00:05:12.437Z,7.92
2023-05-18T00:07:40.920Z,7.94
2023-05-18T00:10:08.220Z,7.97
2023-05-18T00:12:34.664Z,7.93
2023-05-18T00:15:01.156Z,7.87
2023-05-18T00:17:29.034Z,7.88
2023-05-18T00:19:58.508Z,7.83
2023-05-18T00:22:26.404Z,7.99
2023-05-18T00:24:53.039Z,7.95
2023-05-18T00:27:19.511Z,7.98
2023-05-18T00:29:46.214Z,7.97
2023-05-18T00:32:12.872Z,7.77
2023-05-18T00:34:39.301Z,7.89
2023-05-18T00:37:05.950Z,7.72
2023-05-18T00:39:32.418Z,7.90
2023-05-18T00:41:58.953Z,7.90
2023-05-18T00:44:25.659Z,7.88
2023-05-18T00:46:52.176Z,7.83
2023-05-18T00:49:19.065Z,7.63
2023-05-18T00:51:45.812Z,7.84
2023-05-18T00:54:12.410Z,7.91
2023-05-18T00:56:42.107Z,7.83
2023-05-18T00:59:13.936Z,7.80
2023-05-18T01:01:46.215Z,7.62
2023-05-18T01:04:16.253Z,7.69
2023-05-18T01:06:42.975Z,7.69
2023-05-18T01:09:12.149Z,7.68
2023-05-18T01:12:04.637Z,7.67
2023-05-18T01:14:37.294Z,7.50
2023-05-18T01:17:23.655Z,7.45
2023-05-18T01:20:06.949Z,7.47
2023-05-18T01:22:56.360Z,7.56
2023-05-18T01:25:47.105Z,7.53
2023-05-18T01:28:20.302Z,7.43
2023-05-18T01:30:47.753Z,7.51
2023-05-18T01:33:14.757Z,7.50
2023-05-18T01:35:50.565Z,7.42
2023-05-18T01:38:26.277Z,7.48
2023-05-18T01:41:11.380Z,7.52
2023-05-18T01:43:47.031Z,7.62
2023-05-18T01:46:35.989Z,7.64
2023-05-18T01:49:11.211Z,7.61
2023-05-18T01:51:44.480Z,7.56
2023-05-18T01:54:12.841Z,7.71
2023-05-18T01:56:40.762Z,7.63
2023-05-18T01:59:08.287Z,7.44
2023-05-18T02:01:34.815Z,7.58
2023-05-18T02:04:01.648Z,7.52
2023-05-18T02:06:28.672Z,7.54
2023-05-18T02:08:55.378Z,7.26
2023-05-18T02:11:21.900Z,7.51
2023-05-18T02:13:48.400Z,7.44
2023-05-18T02:16:14.964Z,7.48
2023-05-18T02:18:43.002Z,7.47
2023-05-18T02:21:10.507Z,7.41
2023-05-18T02:23:37.038Z,7.32
2023-05-18T02:26:03.592Z,7.42
2023-05-18T02:28:30.363Z,7.43
2023-05-18T02:31:11.958Z,7.43
2023-05-18T02:33:41.646Z,7.25
2023-05-18T02:36:09.946Z,7.38
2023-05-18T02:38:38.481Z,7.29
2023-05-18T02:41:05.700Z,7.34
2023-05-18T02:43:33.232Z,7.29
2023-05-18T02:45:59.969Z,7.26
2023-05-18T02:48:26.934Z,7.21
2023-05-18T02:50:53.855Z,7.25
2023-05-18T02:53:21.166Z,7.11
2023-05-18T02:55:48.679Z,7.21
2023-05-18T02:58:16.069Z,7.26
2023-05-18T03:00:42.685Z,7.21
2023-05-18T03:03:10.947Z,7.18
2023-05-18T03:05:37.686Z,7.05
2023-05-18T03:08:05.150Z,7.17
2023-05-18T03:10:32.281Z,6.96
2023-05-18T03:12:58.752Z,7.00
2023-05-18T03:15:25.202Z,6.97
2023-05-18T03:17:51.953Z,6.95
2023-05-18T03:20:19.823Z,6.99
2023-05-18T03:22:46.424Z,6.93
2023-05-18T03:25:12.926Z,6.89
2023-05-18T03:27:39.395Z,6.81
2023-05-18T03:30:06.492Z,6.71
2023-05-18T03:32:33.974Z,6.84
2023-05-18T03:35:01.257Z,6.84
2023-05-18T03:37:30.772Z,6.84
2023-05-18T03:40:11.266Z,6.87
2023-05-18T03:42:39.054Z,6.89
2023-05-18T03:45:06.306Z,6.87
2023-05-18T03:47:32.965Z,6.83
2023-05-18T03:49:59.904Z,6.83
2023-05-18T03:52:26.388Z,6.68
2023-05-18T03:54:52.940Z,6.58
2023-05-18T03:57:19.815Z,6.68
2023-05-18T03:59:47.860Z,6.75
2023-05-18T04:02:16.566Z,6.83
2023-05-18T04:04:45.966Z,6.80
2023-05-18T04:07:15.416Z,6.76
2023-05-18T04:09:43.691Z,6.69
2023-05-18T04:12:10.723Z,6.68
2023-05-18T04:14:37.290Z,6.66
2023-05-18T04:17:05.076Z,6.58
2023-05-18T04:19:32.947Z,6.76
2023-05-18T04:22:00.017Z,6.84
2023-05-18T04:24:26.997Z,6.87
2023-05-18T04:26:53.684Z,6.97
2023-05-18T04:29:21.221Z,6.93
2023-05-18T04:31:48.158Z,6.91
2023-05-18T04:34:17.876Z,6.86
2023-05-18T04:36:44.714Z,6.90
2023-05-18T04:39:12.199Z,6.86
2023-05-18T04:41:42.144Z,6.89
2023-05-18T04:44:09.568Z,6.95
2023-05-18T04:46:39.681Z,7.02
2023-05-18T04:49:06.320Z,7.04
2023-05-18T04:51:34.623Z,7.09
2023-05-18T04:54:03.384Z,7.10
2023-05-18T04:56:29.894Z,7.06
2023-05-18T04:58:59.347Z,7.23
2023-05-18T05:01:26.112Z,7.28
2023-05-18T05:03:52.755Z,7.40
2023-05-18T05:06:19.318Z,7.38
2023-05-18T05:08:46.073Z,7.44
2023-05-18T05:11:12.633Z,7.33
2023-05-18T05:13:39.266Z,7.43
2023-05-18T05:16:06.312Z,7.46
2023-05-18T05:18:32.965Z,7.52
2023-05-18T05:20:59.654Z,7.36
2023-05-18T05:23:26.296Z,7.63
2023-05-18T05:25:52.965Z,7.72
2023-05-18T05:28:19.411Z,7.78
2023-05-18T05:30:46.037Z,7.87
2023-05-18T05:33:12.536Z,7.95
2023-05-18T05:35:41.504Z,7.99
2023-05-18T05:38:08.650Z,8.16
2023-05-18T05:40:35.112Z,8.22
2023-05-18T05:43:01.635Z,8.23
2023-05-18T05:45:28.796Z,8.41
2023-05-18T05:47:55.861Z,8.55
2023-05-18T05:50:22.445Z,8.60
2023-05-18T05:52:49.026Z,8.69
2023-05-18T05:55:15.753Z,8.77
2023-05-18T05:57:42.936Z,8.92
2023-05-18T06:00:11.280Z,8.97
2023-05-18T06:02:38.058Z,8.98
2023-05-18T06:05:06.261Z,8.95
2023-05-18T06:07:33.123Z,9.01
2023-05-18T06:09:59.580Z,9.09
2023-05-18T06:12:26.149Z,9.09
2023-05-18T06:14:54.329Z,9.27
2023-05-18T06:17:21.095Z,9.47
2023-05-18T06:19:47.529Z,9.76
2023-05-18T06:22:14.075Z,9.95
2023-05-18T06:24:40.542Z,10.03
2023-05-18T06:27:08.467Z,10.21
2023-05-18T06:29:34.939Z,10.38
2023-05-18T06:32:02.556Z,10.52
2023-05-18T06:34:29.111Z,10.62
2023-05-18T06:36:56.108Z,10.89
2023-05-18T06:39:22.584Z,10.86
2023-05-18T06:41:51.927Z,10.92
2023-05-18T06:44:18.344Z,10.87
2023-05-18T06:46:47.052Z,10.80
2023-05-18T06:49:13.547Z,10.67
2023-05-18T06:51:40.082Z,10.63
2023-05-18T06:54:06.654Z,10.48
2023-05-18T06:56:33.114Z,10.34
2023-05-18T06:59:00.472Z,10.36
2023-05-18T07:01:27.186Z,10.37
2023-05-18T07:03:53.710Z,10.40
2023-05-18T07:06:20.668Z,10.31
2023-05-18T07:08:47.830Z,10.35
2023-05-18T07:11:15.067Z,10.48
2023-05-18T07:13:42.660Z,10.61
2023-05-18T07:16:09.253Z,10.76
2023-05-18T07:18:35.810Z,10.84
2023-05-18T07:21:02.300Z,10.88
2023-05-18T07:23:29.091Z,10.85
2023-05-18T07:25:57.347Z,10.80
2023-05-18T07:28:23.723Z,10.72
2023-05-18T07:30:50.264Z,10.71
2023-05-18T07:33:16.882Z,10.81
2023-05-18T07:35:43.478Z,10.76
2023-05-18T07:38:09.952Z,10.78
2023-05-18T07:40:36.426Z,10.87
2023-05-18T07:43:02.857Z,10.99
2023-05-18T07:45:29.654Z,11.08
2023-05-18T07:47:57.644Z,11.17
2023-05-18T07:50:24.294Z,11.17
2023-05-18T07:52:50.766Z,11.06
2023-05-18T07:55:17.496Z,11.17
2023-05-18T07:57:44.152Z,11.05
2023-05-18T08:00:11.247Z,11.22
2023-05-18T08:02:38.709Z,11.19
2023-05-18T08:05:05.975Z,11.09
2023-05-18T08:07:33.841Z,10.96
2023-05-18T08:10:00.510Z,11.13
2023-05-18T08:12:27.008Z,11.16
2023-05-18T08:14:53.707Z,11.19
2023-05-18T08:17:20.187Z,11.17
2023-05-18T08:19:47.864Z,11.13
2023-05-18T08:22:15.532Z,11.17
2023-05-18T08:24:44.112Z,10.97
2023-05-18T08:27:11.342Z,11.08
2023-05-18T08:29:38.972Z,10.99
2023-05-18T08:32:07.346Z,10.98
2023-05-18T08:34:34.727Z,11.01
2023-05-18T08:37:01.426Z,11.13
2023-05-18T08:39:31.641Z,10.97
2023-05-18T08:42:03.809Z,11.14
2023-05-18T08:44:40.196Z,11.16
2023-05-18T08:47:11.060Z,11.26
2023-05-18T08:49:40.490Z,11.22
2023-05-18T08:52:08.601Z,11.27
2023-05-18T08:54:37.366Z,11.26
2023-05-18T08:57:11.951Z,11.20
2023-05-18T08:59:44.436Z,11.21
2023-05-18T09:02:11.763Z,11.42
2023-05-18T09:04:38.849Z,11.48
2023-05-18T09:07:07.235Z,11.54
2023-05-18T09:09:35.463Z,11.55
2023-05-18T09:12:01.888Z,11.49
2023-05-18T09:14:29.161Z,11.44
2023-05-18T09:16:55.789Z,11.50
2023-05-18T09:19:24.619Z,11.61
2023-05-18T09:21:51.260Z,11.61
2023-05-18T09:24:19.302Z,11.68
2023-05-18T09:26:46.255Z,11.82
2023-05-18T09:29:24.227Z,11.86
2023-05-18T09:31:51.845Z,11.83
2023-05-18T09:34:19.371Z,11.83
2023-05-18T09:36:52.785Z,11.74
2023-05-18T09:39:19.336Z,11.83
2023-05-18T09:41:46.093Z,11.96
2023-05-18T09:44:13.349Z,11.95
2023-05-18T09:46:40.503Z,12.14
2023-05-18T09:49:07.986Z,12.20
2023-05-18T09:51:38.748Z,12.26
2023-05-18T09:54:08.600Z,12.41
2023-05-18T09:56:36.682Z,12.37
2023-05-18T09:59:16.312Z,12.78
2023-05-18T10:01:56.833Z,12.93
2023-05-18T10:04:23.825Z,12.79
2023-05-18T10:06:51.256Z,12.78
2023-05-18T10:09:18.019Z,12.86
2023-05-18T10:11:44.547Z,13.08
2023-05-18T10:14:11.652Z,13.11
2023-05-18T10:16:38.431Z,13.10
2023-05-18T10:19:08.805Z,13.17
2023-05-18T10:21:37.897Z,13.20
2023-05-18T10:24:08.669Z,13.25
2023-05-18T10:26:39.010Z,13.47
2023-05-18T10:29:06.303Z,13.15
2023-05-18T10:31:35.503Z,12.97
2023-05-18T10:34:03.932Z,13.06
2023-05-18T10:36:32.692Z,13.18
2023-05-18T10:39:00.686Z,13.22
2023-05-18T10:41:28.350Z,13.21
2023-05-18T10:43:55.153Z,13.39
2023-05-18T10:46:26.710Z,13.33
2023-05-18T10:48:54.866Z,13.43
2023-05-18T10:51:21.460Z,13.58
2023-05-18T10:53:48.324Z,13.64
2023-05-18T10:56:17.758Z,13.61
2023-05-18T10:58:45.846Z,13.73
2023-05-18T11:01:13.643Z,13.95
2023-05-18T11:03:42.149Z,13.84
2023-05-18T11:06:11.497Z,13.81
2023-05-18T11:08:46.050Z,13.44
2023-05-18T11:11:12.598Z,13.61
2023-05-18T11:13:52.461Z,13.84
2023-05-18T11:16:20.986Z,13.83
2023-05-18T11:18:49.800Z,13.58
2023-05-18T11:21:32.047Z,13.55
2023-05-18T11:24:18.604Z,13.46
2023-05-18T11:26:51.081Z,13.60
2023-05-18T11:29:22.389Z,13.59
2023-05-18T11:31:55.537Z,13.62
2023-05-18T11:34:40.102Z,13.41
2023-05-18T11:37:10.150Z,13.50
2023-05-18T11:39:44.744Z,13.53
2023-05-18T11:42:18.804Z,13.68
2023-05-18T11:44:52.094Z,13.61
2023-05-18T11:47:18.699Z,13.32
2023-05-18T11:49:46.885Z,13.53
2023-05-18T11:52:14.254Z,13.50
2023-05-18T11:54:49.499Z,13.61
2023-05-18T11:57:18.576Z,13.66
2023-05-18T11:59:53.923Z,13.87
2023-05-18T12:02:24.043Z,13.55
2023-05-18T12:04:55.350Z,13.78
2023-05-18T12:07:23.640Z,13.94
2023-05-18T12:09:52.954Z,13.96
2023-05-18T12:12:23.997Z,14.36
2023-05-18T12:14:57.505Z,14.34
2023-05-18T12:17:37.358Z,14.23
2023-05-18T12:20:04.804Z,14.41
2023-05-18T12:22:31.390Z,14.13
2023-05-18T12:24:57.881Z,14.20
2023-05-18T12:27:26.707Z,14.37
2023-05-18T12:29:54.796Z,14.36
2023-05-18T12:32:21.310Z,14.44
2023-05-18T12:34:48.244Z,14.45
2023-05-18T12:37:15.373Z,14.59
2023-05-18T12:39:41.810Z,14.64
2023-05-18T12:42:13.645Z,14.65
2023-05-18T12:44:44.458Z,14.72
2023-05-18T12:47:14.889Z,14.65
2023-05-18T12:49:47.989Z,14.49
2023-05-18T12:52:16.559Z,14.72
2023-05-18T12:55:01.169Z,14.66
2023-05-18T12:57:30.570Z,14.74
2023-05-18T12:59:57.882Z,14.93
2023-05-18T13:02:31.107Z,14.90
2023-05-18T13:05:09.754Z,14.99
2023-05-18T13:07:46.397Z,15.11
2023-05-18T13:10:16.784Z,14.71
2023-05-18T13:12:43.188Z,14.89
2023-05-18T13:15:13.467Z,14.77
2023-05-18T13:18:00.226Z,14.86
2023-05-18T13:20:49.640Z,14.99
2023-05-18T13:23:21.615Z,14.96
2023-05-18T13:25:49.335Z,14.79
2023-05-18T13:28:20.610Z,14.67
2023-05-18T13:30:49.096Z,14.89
2023-05-18T13:33:17.891Z,14.78
2023-05-18T13:35:45.455Z,14.72
2023-05-18T13:38:14.671Z,14.84
2023-05-18T13:40:42.174Z,14.83
2023-05-18T13:43:11.226Z,14.98
2023-05-18T13:45:39.426Z,15.13
2023-05-18T13:48:09.615Z,15.40
2023-05-18T13:50:36.730Z,15.61
2023-05-18T13:53:03.467Z,15.51
2023-05-18T13:55:30.235Z,15.53
2023-05-18T13:57:56.929Z,15.83
2023-05-18T14:00:23.510Z,15.60
2023-05-18T14:02:50.080Z,15.69
2023-05-18T14:05:16.627Z,15.76
2023-05-18T14:07:44.151Z,15.72
2023-05-18T14:10:12.533Z,15.83
2023-05-18T14:12:39.366Z,15.94
2023-05-18T14:15:06.476Z,15.86
2023-05-18T14:17:34.079Z,15.73
2023-05-18T14:20:00.785Z,15.95
2023-05-18T14:22:27.440Z,15.93
2023-05-18T14:24:54.066Z,15.71
2023-05-18T14:27:20.683Z,15.72
2023-05-18T14:29:49.446Z,15.87
2023-05-18T14:32:16.935Z,15.82
2023-05-18T14:34:43.474Z,15.67
2023-05-18T14:37:09.929Z,15.85
2023-05-18T14:39:36.402Z,15.87
2023-05-18T14:42:05.502Z,16.03
2023-05-18T14:44:32.090Z,15.94
2023-05-18T14:46:58.637Z,16.24
2023-05-18T14:49:25.408Z,16.30
2023-05-18T14:51:51.948Z,16.05
2023-05-18T14:54:19.365Z,16.04
2023-05-18T14:56:45.990Z,16.02
2023-05-18T14:59:12.435Z,15.93
2023-05-18T15:01:39.099Z,15.92
2023-05-18T15:04:05.758Z,15.84
2023-05-18T15:06:33.362Z,15.78
2023-05-18T15:08:59.883Z,15.82
2023-05-18T15:11:26.628Z,15.74
2023-05-18T15:13:53.286Z,15.55
2023-05-18T15:16:19.938Z,15.51
2023-05-18T15:18:46.908Z,15.51
2023-05-18T15:21:13.591Z,15.61
2023-05-18T15:23:42.926Z,15.50
2023-05-18T15:26:09.501Z,15.56
2023-05-18T15:28:36.080Z,15.64
2023-05-18T15:31:02.726Z,15.60
2023-05-18T15:33:29.163Z,15.53
2023-05-18T15:35:55.641Z,15.50
2023-05-18T15:38:22.132Z,15.66
2023-05-18T15:40:50.285Z,15.56
2023-05-18T15:43:17.015Z,15.63
2023-05-18T15:45:43.464Z,15.51
2023-05-18T15:48:10.027Z,15.42
2023-05-18T15:50:36.623Z,15.37
2023-05-18T15:53:03.316Z,15.51
2023-05-18T15:55:29.756Z,15.44
2023-05-18T15:57:56.187Z,15.41
2023-05-18T16:00:24.768Z,15.41
2023-05-18T16:02:51.298Z,15.29
2023-05-18T16:05:17.850Z,15.33
2023-05-18T16:07:46.090Z,15.28
2023-05-18T16:10:14.264Z,15.17
2023-05-18T16:12:40.875Z,15.33
2023-05-18T16:15:07.782Z,15.33
2023-05-18T16:17:34.411Z,15.25
2023-05-18T16:20:03.582Z,15.27
2023-05-18T16:22:30.642Z,15.36
2023-05-18T16:25:01.112Z,15.25
2023-05-18T16:27:27.774Z,15.04
2023-05-18T16:29:54.585Z,15.14
2023-05-18T16:32:21.092Z,15.23
2023-05-18T16:34:47.529Z,15.19
2023-05-18T16:37:14.114Z,15.18
2023-05-18T16:39:40.616Z,15.12
2023-05-18T16:42:07.746Z,15.04
2023-05-18T16:44:35.388Z,15.06
2023-05-18T16:47:01.893Z,15.10
2023-05-18T16:49:28.433Z,15.07
2023-05-18T16:51:54.856Z,14.96
2023-05-18T16:54:21.413Z,15.01
2023-05-18T16:56:47.893Z,15.04
2023-05-18T16:59:14.449Z,15.01
2023-05-18T17:01:41.627Z,15.03
2023-05-18T17:04:08.280Z,15.01
2023-05-18T17:06:34.799Z,14.97
2023-05-18T17:09:06.131Z,14.83
2023-05-18T17:11:33.110Z,14.85
2023-05-18T17:14:01.399Z,14.87
2023-05-18T17:16:28.439Z,14.91
2023-05-18T17:18:56.215Z,14.82
2023-05-18T17:21:24.211Z,14.84
2023-05-18T17:23:50.791Z,14.81
2023-05-18T17:26:17.370Z,14.81
2023-05-18T17:28:43.807Z,14.75
2023-05-18T17:31:14.528Z,14.90
2023-05-18T17:33:46.936Z,14.87
2023-05-18T17:36:17.127Z,14.77
2023-05-18T17:38:44.728Z,14.84
2023-05-18T17:41:11.791Z,14.88
2023-05-18T17:43:38.272Z,14.81
2023-05-18T17:46:05.100Z,14.78
2023-05-18T17:48:31.737Z,14.81
2023-05-18T17:50:58.238Z,14.84
2023-05-18T17:53:24.771Z,14.73
2023-05-18T17:55:51.688Z,14.75
2023-05-18T17:58:18.167Z,14.74
2023-05-18T18:00:44.618Z,14.60
2023-05-18T18:03:11.538Z,14.61
2023-05-18T18:05:38.240Z,14.60
2023-05-18T18:08:04.798Z,14.62
2023-05-18T18:10:34.735Z,14.63
2023-05-18T18:13:01.511Z,14.68
2023-05-18T18:15:28.921Z,14.63
2023-05-18T18:17:56.410Z,14.78
2023-05-18T18:20:23.459Z,14.70
2023-05-18T18:22:50.006Z,14.75
2023-05-18T18:25:16.583Z,14.75
2023-05-18T18:27:43.203Z,14.74
2023-05-18T18:30:10.703Z,14.76
2023-05-18T18:32:37.283Z,14.71
2023-05-18T18:35:04.439Z,14.67
2023-05-18T18:37:32.129Z,14.52
2023-05-18T18:39:58.613Z,14.59
2023-05-18T18:42:25.138Z,14.68
2023-05-18T18:44:56.479Z,14.45
2023-05-18T18:47:23.342Z,14.33
2023-05-18T18:49:49.812Z,14.27
2023-05-18T18:52:16.474Z,14.22
2023-05-18T18:54:43.105Z,14.38
2023-05-18T18:57:11.920Z,14.29
2023-05-18T18:59:42.856Z,14.14
2023-05-18T19:02:09.410Z,14.05
2023-05-18T19:04:37.077Z,14.04
2023-05-18T19:07:04.726Z,13.90
2023-05-18T19:09:34.673Z,13.86
2023-05-18T19:12:01.399Z,13.84
2023-05-18T19:14:28.212Z,13.87
2023-05-18T19:16:54.790Z,13.78
2023-05-18T19:19:21.240Z,13.73
2023-05-18T19:21:47.833Z,13.87
2023-05-18T19:24:14.300Z,13.74
2023-05-18T19:26:40.734Z,13.60
2023-05-18T19:29:07.378Z,13.67
2023-05-18T19:31:35.943Z,13.52
2023-05-18T19:34:02.530Z,13.46
2023-05-18T19:36:29.074Z,13.48
2023-05-18T19:38:56.009Z,13.50
2023-05-18T19:41:24.506Z,13.48
2023-05-18T19:43:51.344Z,13.42
2023-05-18T19:46:18.685Z,13.32
2023-05-18T19:48:45.225Z,13.36
2023-05-18T19:51:11.944Z,13.25
2023-05-18T19:53:38.560Z,13.13
2023-05-18T19:56:05.304Z,13.08
2023-05-18T19:58:31.826Z,13.09
2023-05-18T20:00:59.173Z,12.98
2023-05-18T20:03:26.438Z,12.98
2023-05-18T20:05:53.205Z,12.91
2023-05-18T20:08:20.230Z,12.88
2023-05-18T20:10:47.823Z,12.80
2023-05-18T20:13:15.515Z,12.82
2023-05-18T20:15:43.745Z,12.91
2023-05-18T20:18:11.220Z,12.88
2023-05-18T20:20:38.677Z,12.79
2023-05-18T20:23:07.550Z,12.73
2023-05-18T20:25:35.496Z,12.63
2023-05-18T20:28:03.445Z,12.59
2023-05-18T20:30:30.893Z,12.55
2023-05-18T20:33:00.809Z,12.53
2023-05-18T20:35:27.894Z,12.54
2023-05-18T20:37:55.856Z,12.35
2023-05-18T20:40:23.407Z,12.44
2023-05-18T20:42:54.206Z,12.42
2023-05-18T20:45:22.911Z,12.35
2023-05-18T20:47:52.913Z,12.32
2023-05-18T20:50:21.073Z,12.21
2023-05-18T20:52:48.114Z,12.22
2023-05-18T20:55:15.027Z,12.20
2023-05-18T20:57:44.580Z,12.13
2023-05-18T21:00:12.953Z,12.05
2023-05-18T21:02:45.229Z,12.13
2023-05-18T21:05:13.039Z,12.07
2023-05-18T21:07:40.066Z,11.96
2023-05-18T21:10:08.756Z,11.95
2023-05-18T21:12:36.670Z,11.91
2023-05-18T21:15:04.204Z,11.79
2023-05-18T21:17:32.170Z,11.72
2023-05-18T21:19:58.938Z,11.62
2023-05-18T21:22:25.520Z,11.51
2023-05-18T21:24:52.106Z,11.52
2023-05-18T21:27:18.726Z,11.49
2023-05-18T21:29:45.704Z,11.41
2023-05-18T21:32:12.521Z,11.36
2023-05-18T21:34:41.225Z,11.32
2023-05-18T21:37:09.986Z,11.35
2023-05-18T21:39:36.517Z,11.22
2023-05-18T21:42:03.858Z,11.21
2023-05-18T21:44:30.682Z,11.15
2023-05-18T21:46:57.893Z,11.09
2023-05-18T21:49:25.048Z,11.07
2023-05-18T21:51:51.988Z,10.98
2023-05-18T21:54:18.966Z,10.92
2023-05-18T21:56:45.848Z,10.93
2023-05-18T21:59:12.415Z,10.76
2023-05-18T22:01:39.974Z,10.94
2023-05-18T22:04:07.726Z,10.87
2023-05-18T22:06:34.599Z,10.73
2023-05-18T22:09:01.414Z,10.77
2023-05-18T22:11:28.033Z,10.80
2023-05-18T22:13:54.610Z,10.74
2023-05-18T22:16:21.677Z,10.78
2023-05-18T22:18:48.196Z,10.69
2023-05-18T22:21:14.950Z,10.63
2023-05-18T22:23:41.687Z,10.62
2023-05-18T22:26:08.416Z,10.52
2023-05-18T22:28:34.965Z,10.59
2023-05-18T22:31:01.647Z,10.55
2023-05-18T22:33:28.552Z,10.57
2023-05-18T22:35:55.124Z,10.55
2023-05-18T22:38:21.964Z,10.45
2023-05-18T22:40:53.777Z,10.43
2023-05-18T22:43:25.774Z,10.27
2023-05-18T22:45:52.294Z,10.24
2023-05-18T22:48:19.150Z,10.17
2023-05-18T22:50:45.873Z,10.15
2023-05-18T22:53:12.642Z,10.22
2023-05-18T22:55:39.412Z,10.21
2023-05-18T22:58:05.949Z,10.14
2023-05-18T23:00:33.227Z,10.02
2023-05-18T23:03:00.186Z,9.96
2023-05-18T23:05:28.031Z,10.02
2023-05-18T23:07:57.727Z,10.02
2023-05-18T23:10:26.688Z,9.91
2023-05-18T23:12:55.679Z,9.91
2023-05-18T23:15:23.032Z,9.83
2023-05-18T23:17:50.220Z,9.93
2023-05-18T23:20:17.205Z,9.89
2023-05-18T23:22:44.783Z,9.82
2023-05-18T23:25:11.817Z,9.87
2023-05-18T23:27:38.577Z,9.84
2023-05-18T23:30:06.208Z,9.75
2023-05-18T23:32:33.734Z,9.77
2023-05-18T23:35:01.095Z,9.72
2023-05-18T23:37:29.231Z,9.71
2023-05-18T23:39:56.692Z,9.61
2023-05-18T23:42:24.656Z,9.62
2023-05-18T23:44:51.958Z,9.62
2023-05-18T23:47:19.056Z,9.67
2023-05-18T23:49:46.993Z,9.72
2023-05-18T23:52:14.781Z,9.71
2023-05-18T23:54:42.004Z,9.69
2023-05-18T23:57:09.276Z,9.67
2023-05-18T23:59:37.051Z,9.67
